Time,TemperatureF,DewpointF,PressureIn,WindDirection,WindDirectionDegrees,WindSpeedMPH,WindSpeedGustMPH,Humidity,HourlyPrecipIn,Conditions,Clouds,dailyrainin,SoftwareType,DateUTC
2013-05-05 00:01:00,50.3,45.3,30.21,East,84,11.0,16.0,83,0.00,,CLR,0.00,VWS V14.01,2013-05-05 04:01:00,
2013-05-05 00:06:00,50.4,46.1,30.21,ENE,76,11.0,14.0,85,0.00,,CLR,0.00,VWS V14.01,2013-05-05 04:06:00,
2013-05-05 00:11:00,50.5,46.2,30.21,East,80,14.0,17.0,85,0.00,,CLR,0.00,VWS V14.01,2013-05-05 04:11:00,
2013-05-05 00:16:00,50.5,46.2,30.21,East,80,14.0,17.0,85,0.00,,CLR,0.00,VWS V14.01,2013-05-05 04:16:00,
2013-05-05 00:21:00,50.1,45.8,30.21,East,84,16.0,19.0,85,0.00,,CLR,0.00,VWS V14.01,2013-05-05 04:21:00,
2013-05-05 00:26:00,50.0,45.7,30.21,East,88,13.0,16.0,85,0.00,,CLR,0.00,VWS V14.01,2013-05-05 04:26:00,
2013-05-05 00:31:00,50.0,47.2,30.21,East,94,17.0,17.0,90,0.00,,CLR,0.00,VWS V14.01,2013-05-05 04:31:00,
2013-05-05 00:36:00,50.0,46.0,30.21,East,96,14.0,15.0,86,0.00,,CLR,0.00,VWS V14.01,2013-05-05 04:36:00,
2013-05-05 00:41:00,49.9,45.9,30.21,ENE,75,13.0,17.0,86,0.00,,CLR,0.00,VWS V14.01,2013-05-05 04:41:00,
2013-05-05 00:47:00,49.8,45.8,30.21,East,81,12.0,19.0,86,0.00,,CLR,0.00,VWS V14.01,2013-05-05 04:47:00,
2013-05-05 00:52:00,49.5,45.5,30.21,East,98,14.0,16.0,86,0.00,,CLR,0.00,VWS V14.01,2013-05-05 04:52:00,
2013-05-05 00:56:00,49.4,45.1,30.21,East,85,13.0,15.0,85,0.00,,CLR,0.00,VWS V14.01,2013-05-05 04:56:00,
2013-05-05 01:01:00,49.4,45.4,30.21,East,82,12.0,14.0,86,0.00,,CLR,0.00,VWS V14.01,2013-05-05 05:01:00,
2013-05-05 01:06:00,49.4,45.4,30.21,ENE,71,14.0,14.0,86,0.00,,CLR,0.00,VWS V14.01,2013-05-05 05:06:00,
2013-05-05 01:11:00,49.5,45.8,30.21,East,82,11.0,13.0,87,0.00,,CLR,0.00,VWS V14.01,2013-05-05 05:11:00,
2013-05-05 01:16:00,49.4,45.7,30.20,East,96,11.0,14.0,87,0.00,,CLR,0.00,VWS V14.01,2013-05-05 05:16:00,
2013-05-05 01:21:00,49.2,45.2,30.20,ENE,75,14.0,16.0,86,0.00,,CLR,0.00,VWS V14.01,2013-05-05 05:21:00,
2013-05-05 01:26:00,49.1,45.1,30.20,East,83,14.0,18.0,86,0.00,,CLR,0.00,VWS V14.01,2013-05-05 05:26:00,
2013-05-05 01:31:00,49.0,45.0,30.20,East,80,13.0,16.0,86,0.00,,CLR,0.00,VWS V14.01,2013-05-05 05:31:00,
2013-05-05 01:36:00,48.9,44.9,30.20,East,98,13.0,18.0,86,0.00,,CLR,0.00,VWS V14.01,2013-05-05 05:36:00,
2013-05-05 01:41:00,48.9,45.2,30.20,ESE,103,16.0,18.0,87,0.00,,CLR,0.00,VWS V14.01,2013-05-05 05:41:00,
2013-05-05 01:46:00,48.5,44.2,30.20,ENE,64,12.0,14.0,85,0.00,,CLR,0.00,VWS V14.01,2013-05-05 05:46:00,
2013-05-05 01:52:00,48.6,44.6,30.20,East,84,15.0,16.0,86,0.00,,SCT019,0.00,VWS V14.01,2013-05-05 05:52:00,
2013-05-05 01:57:00,48.7,45.0,30.20,East,90,12.0,15.0,87,0.00,,SCT019,0.00,VWS V14.01,2013-05-05 05:57:00,
2013-05-05 02:02:00,48.7,45.0,30.19,East,82,14.0,15.0,87,0.00,,SCT019,0.00,VWS V14.01,2013-05-05 06:02:00,
2013-05-05 02:07:00,48.8,45.1,30.19,ENE,69,17.0,20.0,87,0.00,,SCT019,0.00,VWS V14.01,2013-05-05 06:07:00,
2013-05-05 02:12:00,48.9,45.2,30.19,ENE,75,12.0,15.0,87,0.00,,SCT019,0.00,VWS V14.01,2013-05-05 06:12:00,
2013-05-05 02:17:00,48.7,45.0,30.19,East,81,13.0,14.0,87,0.00,,SCT019,0.00,VWS V14.01,2013-05-05 06:17:00,
2013-05-05 02:22:00,48.7,45.3,30.19,ENE,78,13.0,13.0,88,0.00,,SCT019,0.00,VWS V14.01,2013-05-05 06:22:00,
2013-05-05 02:27:00,48.7,45.0,30.19,East,88,12.0,15.0,87,0.00,,SCT019,0.00,VWS V14.01,2013-05-05 06:27:00,
2013-05-05 02:32:00,48.6,44.9,30.19,East,79,14.0,17.0,87,0.00,,SCT019,0.00,VWS V14.01,2013-05-05 06:32:00,
2013-05-05 02:37:00,48.5,44.8,30.19,ENE,65,11.0,16.0,87,0.00,,SCT019,0.00,VWS V14.01,2013-05-05 06:37:00,
2013-05-05 02:42:00,48.6,44.9,30.18,ENE,74,13.0,14.0,87,0.00,,CLR,0.00,VWS V14.01,2013-05-05 06:42:00,
2013-05-05 02:47:00,48.6,44.6,30.18,East,92,12.0,14.0,86,0.00,,CLR,0.00,VWS V14.01,2013-05-05 06:47:00,
2013-05-05 02:52:00,48.7,45.0,30.18,ENE,68,13.0,16.0,87,0.00,,CLR,0.00,VWS V14.01,2013-05-05 06:52:00,
2013-05-05 02:57:00,48.7,45.0,30.18,East,88,10.0,14.0,87,0.00,,CLR,0.00,VWS V14.01,2013-05-05 06:57:00,
2013-05-05 03:02:00,48.6,44.9,30.18,East,79,15.0,18.0,87,0.00,,CLR,0.00,VWS V14.01,2013-05-05 07:02:00,
2013-05-05 03:07:00,48.7,45.0,30.18,ENE,76,17.0,17.0,87,0.00,,CLR,0.00,VWS V14.01,2013-05-05 07:07:00,
2013-05-05 03:12:00,48.8,45.1,30.18,East,84,16.0,19.0,87,0.00,,CLR,0.00,VWS V14.01,2013-05-05 07:12:00,
2013-05-05 03:17:00,48.8,44.8,30.18,ENE,77,14.0,15.0,86,0.00,,CLR,0.00,VWS V14.01,2013-05-05 07:17:00,
2013-05-05 03:22:00,48.7,44.7,30.18,ENE,59,14.0,14.0,86,0.00,,CLR,0.00,VWS V14.01,2013-05-05 07:22:00,
2013-05-05 03:27:00,48.7,44.7,30.18,East,84,13.0,16.0,86,0.00,,CLR,0.00,VWS V14.01,2013-05-05 07:27:00,
2013-05-05 03:32:00,48.8,44.8,30.18,ENE,68,13.0,17.0,86,0.00,,CLR,0.00,VWS V14.01,2013-05-05 07:32:00,
2013-05-05 03:37:00,48.8,44.8,30.18,East,80,15.0,18.0,86,0.00,,CLR,0.00,VWS V14.01,2013-05-05 07:37:00,
2013-05-05 03:42:00,48.7,44.4,30.18,ENE,69,12.0,20.0,85,0.00,,SCT022,0.00,VWS V14.01,2013-05-05 07:42:00,
2013-05-05 03:47:00,48.8,44.5,30.18,East,82,15.0,18.0,85,0.00,,SCT022,0.00,VWS V14.01,2013-05-05 07:47:00,
2013-05-05 03:52:00,48.7,44.7,30.18,ENE,75,16.0,18.0,86,0.00,,CLR,0.00,VWS V14.01,2013-05-05 07:52:00,
2013-05-05 03:57:00,48.9,45.2,30.18,East,80,14.0,16.0,87,0.00,,CLR,0.00,VWS V14.01,2013-05-05 07:57:00,
2013-05-05 04:02:00,48.8,44.8,30.18,East,83,13.0,17.0,86,0.00,,CLR,0.00,VWS V14.01,2013-05-05 08:02:00,
2013-05-05 04:07:00,48.8,45.1,30.18,ENE,59,10.0,16.0,87,0.00,,CLR,0.00,VWS V14.01,2013-05-05 08:07:00,
2013-05-05 04:12:00,48.8,45.1,30.18,ENE,64,12.0,18.0,87,0.00,,CLR,0.00,VWS V14.01,2013-05-05 08:12:00,
2013-05-05 04:17:00,48.8,44.8,30.18,NE,42,12.0,15.0,86,0.00,,CLR,0.00,VWS V14.01,2013-05-05 08:17:00,
2013-05-05 04:22:00,48.7,45.0,30.18,ENE,65,10.0,14.0,87,0.00,,CLR,0.00,VWS V14.01,2013-05-05 08:22:00,
2013-05-05 04:27:00,48.8,45.1,30.18,ENE,58,13.0,13.0,87,0.00,,CLR,0.00,VWS V14.01,2013-05-05 08:27:00,
2013-05-05 04:32:00,48.6,44.9,30.17,NE,54,11.0,14.0,87,0.00,,CLR,0.00,VWS V14.01,2013-05-05 08:32:00,
2013-05-05 04:37:00,48.6,45.2,30.18,ENE,63,13.0,16.0,88,0.00,,CLR,0.00,VWS V14.01,2013-05-05 08:37:00,
2013-05-05 04:42:00,48.8,45.1,30.18,ENE,76,13.0,13.0,87,0.00,,SCT022,0.00,VWS V14.01,2013-05-05 08:42:00,
2013-05-05 04:47:00,49.0,45.6,30.17,ENE,69,12.0,18.0,88,0.00,,SCT022,0.00,VWS V14.01,2013-05-05 08:47:00,
2013-05-05 04:52:00,48.8,45.1,30.18,ENE,69,14.0,15.0,87,0.00,,SCT022,0.00,VWS V14.01,2013-05-05 08:52:00,
2013-05-05 04:57:00,48.8,44.8,30.17,ENE,61,11.0,21.0,86,0.00,,SCT022,0.00,VWS V14.01,2013-05-05 08:57:00,
2013-05-05 05:02:00,49.0,45.9,30.17,NE,46,14.0,16.0,89,0.00,,SCT022,0.00,VWS V14.01,2013-05-05 09:02:00,
2013-05-05 05:07:00,48.8,44.8,30.17,ENE,59,11.0,17.0,86,0.00,,SCT022,0.00,VWS V14.01,2013-05-05 09:07:00,
2013-05-05 05:12:00,48.8,45.1,30.17,ENE,65,13.0,16.0,87,0.00,,SCT022,0.00,VWS V14.01,2013-05-05 09:12:00,
2013-05-05 05:17:00,48.8,44.8,30.17,ENE,57,13.0,15.0,86,0.00,,SCT022,0.00,VWS V14.01,2013-05-05 09:17:00,
2013-05-05 05:22:00,48.7,44.4,30.18,ENE,75,11.0,18.0,85,0.00,,SCT022,0.00,VWS V14.01,2013-05-05 09:22:00,
2013-05-05 05:27:00,48.8,45.4,30.17,ENE,71,16.0,16.0,88,0.00,,SCT022,0.00,VWS V14.01,2013-05-05 09:27:00,
2013-05-05 05:32:00,48.7,45.0,30.17,ENE,61,12.0,14.0,87,0.00,,SCT022,0.00,VWS V14.01,2013-05-05 09:32:00,
2013-05-05 05:37:00,48.6,44.9,30.17,NE,51,12.0,15.0,87,0.00,,SCT022,0.00,VWS V14.01,2013-05-05 09:37:00,
2013-05-05 05:42:00,48.5,45.1,30.17,NE,45,11.0,14.0,88,0.00,,SCT022,0.00,VWS V14.01,2013-05-05 09:42:00,
2013-05-05 05:47:00,48.6,45.5,30.17,NE,41,12.0,13.0,89,0.00,,SCT022,0.00,VWS V14.01,2013-05-05 09:47:00,
2013-05-05 05:52:00,48.5,44.8,30.17,NE,48,15.0,16.0,87,0.00,,SCT022,0.00,VWS V14.01,2013-05-05 09:52:00,
2013-05-05 05:57:00,48.5,45.1,30.17,NNE,28,10.0,13.0,88,0.00,,SCT022,0.00,VWS V14.01,2013-05-05 09:57:00,
2013-05-05 06:02:00,48.4,44.4,30.17,NE,42,18.0,18.0,86,0.00,,SCT024,0.00,VWS V14.01,2013-05-05 10:02:00,
2013-05-05 06:07:00,48.5,45.1,30.18,NE,37,15.0,16.0,88,0.00,,SCT024,0.00,VWS V14.01,2013-05-05 10:07:00,
2013-05-05 06:12:00,48.4,45.0,30.18,NE,48,12.0,13.0,88,0.00,,SCT024,0.00,VWS V14.01,2013-05-05 10:12:00,
2013-05-05 06:17:00,48.4,44.7,30.18,NE,53,13.0,15.0,87,0.00,,SCT024,0.00,VWS V14.01,2013-05-05 10:17:00,
2013-05-05 06:22:00,48.3,44.3,30.18,ENE,64,11.0,15.0,86,0.00,,SCT024,0.00,VWS V14.01,2013-05-05 10:22:00,
2013-05-05 06:27:00,48.5,44.8,30.18,NE,49,15.0,19.0,87,0.00,,SCT024,0.00,VWS V14.01,2013-05-05 10:27:00,
2013-05-05 06:32:00,48.3,44.0,30.18,NE,54,14.0,15.0,85,0.00,,SCT024,0.00,VWS V14.01,2013-05-05 10:32:00,
2013-05-05 06:37:00,48.3,44.0,30.19,ENE,59,13.0,15.0,85,0.00,,SCT024,0.00,VWS V14.01,2013-05-05 10:37:00,
2013-05-05 06:42:00,48.5,44.8,30.19,ENE,68,12.0,17.0,87,0.00,,BKN024,0.00,VWS V14.01,2013-05-05 10:42:00,
2013-05-05 06:47:00,48.5,44.2,30.19,NE,44,11.0,17.0,85,0.00,,BKN024,0.00,VWS V14.01,2013-05-05 10:47:00,
2013-05-05 06:52:00,48.5,44.2,30.19,NE,53,14.0,17.0,85,0.00,,BKN024,0.00,VWS V14.01,2013-05-05 10:52:00,
2013-05-05 06:57:00,48.5,44.2,30.19,NE,40,9.0,15.0,85,0.00,,BKN024,0.00,VWS V14.01,2013-05-05 10:57:00,
2013-05-05 07:02:00,48.6,44.9,30.19,NE,50,15.0,15.0,87,0.00,,BKN024,0.00,VWS V14.01,2013-05-05 11:02:00,
2013-05-05 07:07:00,48.7,44.4,30.19,NE,56,12.0,16.0,85,0.00,,BKN024,0.00,VWS V14.01,2013-05-05 11:07:00,
2013-05-05 07:12:00,48.7,44.1,30.19,NE,52,11.0,15.0,84,0.00,,BKN024,0.00,VWS V14.01,2013-05-05 11:12:00,
2013-05-05 07:17:00,48.8,44.8,30.20,NE,49,12.0,16.0,86,0.00,,BKN024,0.00,VWS V14.01,2013-05-05 11:17:00,
2013-05-05 07:22:00,48.7,44.4,30.20,NE,46,15.0,17.0,85,0.00,,BKN024,0.00,VWS V14.01,2013-05-05 11:22:00,
2013-05-05 07:27:00,48.5,44.5,30.20,ENE,59,14.0,18.0,86,0.00,,BKN024,0.00,VWS V14.01,2013-05-05 11:27:00,
2013-05-05 07:32:00,48.5,43.9,30.20,ENE,57,13.0,14.0,84,0.00,,BKN024,0.00,VWS V14.01,2013-05-05 11:32:00,
2013-05-05 07:37:00,48.5,43.9,30.20,ENE,57,12.0,17.0,84,0.00,,BKN024,0.00,VWS V14.01,2013-05-05 11:37:00,
2013-05-05 07:42:00,48.6,44.3,30.20,ENE,60,12.0,15.0,85,0.00,,BKN024,0.00,VWS V14.01,2013-05-05 11:42:00,
2013-05-05 07:47:00,48.7,44.1,30.20,ENE,77,12.0,15.0,84,0.00,,BKN024,0.00,VWS V14.01,2013-05-05 11:47:00,
2013-05-05 07:52:00,48.8,44.2,30.20,NE,53,14.0,14.0,84,0.00,,BKN024,0.00,VWS V14.01,2013-05-05 11:52:00,
2013-05-05 07:57:00,48.8,44.2,30.20,NE,48,13.0,16.0,84,0.00,,BKN024,0.00,VWS V14.01,2013-05-05 11:57:00,
2013-05-05 08:02:00,48.7,44.1,30.20,NE,41,11.0,15.0,84,0.00,,BKN024,0.00,VWS V14.01,2013-05-05 12:02:00,
2013-05-05 08:07:00,48.7,44.1,30.20,NE,53,11.0,13.0,84,0.00,,BKN024,0.00,VWS V14.01,2013-05-05 12:07:00,
2013-05-05 08:12:00,48.8,44.5,30.20,ENE,71,14.0,15.0,85,0.00,,BKN024,0.00,VWS V14.01,2013-05-05 12:12:00,
2013-05-05 08:17:00,48.8,43.9,30.20,NE,53,12.0,15.0,83,0.00,,BKN024,0.00,VWS V14.01,2013-05-05 12:17:00,
2013-05-05 08:22:00,48.8,44.2,30.20,ENE,65,11.0,13.0,84,0.00,,BKN024,0.00,VWS V14.01,2013-05-05 12:22:00,
2013-05-05 08:27:00,48.9,44.0,30.20,ENE,69,13.0,15.0,83,0.00,,BKN024,0.00,VWS V14.01,2013-05-05 12:27:00,
2013-05-05 08:32:00,49.0,44.4,30.20,NE,53,12.0,15.0,84,0.00,,OVC024,0.00,VWS V14.01,2013-05-05 12:32:00,
2013-05-05 08:37:00,49.2,44.3,30.21,ENE,62,10.0,16.0,83,0.00,,OVC024,0.00,VWS V14.01,2013-05-05 12:37:00,
2013-05-05 08:42:00,49.2,44.0,30.21,ENE,75,12.0,16.0,82,0.00,,OVC024,0.00,VWS V14.01,2013-05-05 12:42:00,
2013-05-05 08:47:00,49.2,44.3,30.21,ENE,60,11.0,15.0,83,0.00,,OVC024,0.00,VWS V14.01,2013-05-05 12:47:00,
2013-05-05 08:52:00,49.2,44.0,30.21,ENE,64,11.0,11.0,82,0.00,,OVC024,0.00,VWS V14.01,2013-05-05 12:52:00,
2013-05-05 08:57:00,49.2,44.0,30.21,ENE,70,8.0,16.0,82,0.00,,OVC024,0.00,VWS V14.01,2013-05-05 12:57:00,
2013-05-05 09:02:00,49.2,44.0,30.22,East,86,9.0,13.0,82,0.00,,OVC024,0.00,VWS V14.01,2013-05-05 13:02:00,
2013-05-05 09:07:00,49.3,43.4,30.22,ENE,74,11.0,12.0,80,0.00,,OVC024,0.00,VWS V14.01,2013-05-05 13:07:00,
2013-05-05 09:12:00,49.5,44.6,30.22,ENE,57,10.0,11.0,83,0.00,,OVC024,0.00,VWS V14.01,2013-05-05 13:12:00,
2013-05-05 09:17:00,49.5,43.9,30.22,ENE,63,10.0,13.0,81,0.00,,OVC024,0.00,VWS V14.01,2013-05-05 13:17:00,
2013-05-05 09:22:00,49.5,43.9,30.22,NE,49,9.0,12.0,81,0.00,,OVC024,0.00,VWS V14.01,2013-05-05 13:22:00,
2013-05-05 09:27:00,49.6,44.3,30.22,ENE,68,5.0,12.0,82,0.00,,OVC024,0.00,VWS V14.01,2013-05-05 13:27:00,
2013-05-05 09:32:00,49.7,44.1,30.21,ENE,60,9.0,9.0,81,0.00,,OVC024,0.00,VWS V14.01,2013-05-05 13:32:00,
2013-05-05 09:37:00,49.7,43.8,30.21,NE,53,12.0,15.0,80,0.00,,OVC024,0.00,VWS V14.01,2013-05-05 13:37:00,
2013-05-05 09:42:00,49.8,43.9,30.22,NE,53,7.0,11.0,80,0.00,,OVC022,0.00,VWS V14.01,2013-05-05 13:42:00,
2013-05-05 09:47:00,50.1,44.8,30.22,ENE,76,9.0,12.0,82,0.00,,OVC022,0.00,VWS V14.01,2013-05-05 13:47:00,
2013-05-05 09:52:00,50.2,44.6,30.22,NE,34,9.0,13.0,81,0.00,,OVC022,0.00,VWS V14.01,2013-05-05 13:52:00,
2013-05-05 09:58:00,50.3,45.0,30.21,NE,43,10.0,16.0,82,0.00,,OVC022,0.00,VWS V14.01,2013-05-05 13:58:00,
2013-05-05 10:03:00,50.3,44.7,30.22,ENE,71,14.0,16.0,81,0.00,,OVC022,0.00,VWS V14.01,2013-05-05 14:03:00,
2013-05-05 10:08:00,50.5,44.9,30.22,ENE,57,13.0,14.0,81,0.00,,OVC022,0.00,VWS V14.01,2013-05-05 14:08:00,
2013-05-05 10:13:00,50.5,44.6,30.22,ENE,58,10.0,15.0,80,0.00,,OVC022,0.00,VWS V14.01,2013-05-05 14:13:00,
2013-05-05 10:18:00,50.6,44.7,30.22,ENE,70,12.0,14.0,80,0.00,,OVC022,0.00,VWS V14.01,2013-05-05 14:18:00,
2013-05-05 10:23:00,51.0,45.1,30.21,ENE,72,14.0,14.0,80,0.00,,OVC022,0.00,VWS V14.01,2013-05-05 14:23:00,
2013-05-05 10:28:00,51.1,45.2,30.22,ENE,68,9.0,15.0,80,0.00,,OVC022,0.00,VWS V14.01,2013-05-05 14:28:00,
2013-05-05 10:33:00,51.0,44.7,30.21,ENE,64,7.0,11.0,79,0.00,,OVC022,0.00,VWS V14.01,2013-05-05 14:33:00,
2013-05-05 10:38:00,51.1,44.8,30.21,ENE,75,12.0,13.0,79,0.00,,OVC022,0.00,VWS V14.01,2013-05-05 14:38:00,
2013-05-05 10:43:00,51.3,45.0,30.21,ENE,59,11.0,11.0,79,0.00,,OVC024,0.00,VWS V14.01,2013-05-05 14:43:00,
2013-05-05 10:48:00,51.3,44.7,30.21,East,80,12.0,13.0,78,0.00,,OVC024,0.00,VWS V14.01,2013-05-05 14:48:00,
2013-05-05 10:53:00,51.8,45.2,30.21,East,86,13.0,15.0,78,0.00,,OVC024,0.00,VWS V14.01,2013-05-05 14:53:00,
2013-05-05 10:58:00,52.1,45.5,30.21,East,86,10.0,12.0,78,0.00,,OVC024,0.00,VWS V14.01,2013-05-05 14:58:00,
2013-05-05 11:03:00,52.3,46.3,30.21,NE,53,11.0,16.0,80,0.00,,OVC024,0.00,VWS V14.01,2013-05-05 15:03:00,
2013-05-05 11:08:00,52.2,45.6,30.21,ENE,72,7.0,13.0,78,0.00,,OVC024,0.00,VWS V14.01,2013-05-05 15:08:00,
2013-05-05 11:13:00,52.1,45.1,30.21,ESE,102,11.0,15.0,77,0.00,,OVC024,0.00,VWS V14.01,2013-05-05 15:13:00,
2013-05-05 11:18:00,52.2,45.2,30.22,East,80,9.0,13.0,77,0.00,,OVC024,0.00,VWS V14.01,2013-05-05 15:18:00,
2013-05-05 11:23:00,52.3,45.7,30.22,East,100,13.0,13.0,78,0.00,,OVC024,0.00,VWS V14.01,2013-05-05 15:23:00,
2013-05-05 11:28:00,52.7,45.7,30.21,ESE,102,14.0,15.0,77,0.00,,OVC024,0.00,VWS V14.01,2013-05-05 15:28:00,
2013-05-05 11:33:00,53.1,46.1,30.21,East,80,9.0,11.0,77,0.00,,OVC024,0.00,VWS V14.01,2013-05-05 15:33:00,
2013-05-05 11:38:00,53.1,46.1,30.22,ESE,119,11.0,13.0,77,0.00,,OVC024,0.00,VWS V14.01,2013-05-05 15:38:00,
2013-05-05 11:43:00,53.4,46.4,30.21,East,96,12.0,12.0,77,0.00,,OVC026,0.00,VWS V14.01,2013-05-05 15:43:00,
2013-05-05 11:48:00,53.6,46.2,30.21,East,96,8.0,13.0,76,0.00,,OVC026,0.00,VWS V14.01,2013-05-05 15:48:00,
2013-05-05 11:53:00,53.8,47.1,30.21,East,97,9.0,13.0,78,0.00,,OVC026,0.00,VWS V14.01,2013-05-05 15:53:00,
2013-05-05 11:58:00,53.7,46.3,30.21,East,96,10.0,11.0,76,0.00,,OVC026,0.00,VWS V14.01,2013-05-05 15:58:00,
2013-05-05 12:03:00,53.8,46.1,30.21,East,98,6.0,7.0,75,0.00,,OVC026,0.00,VWS V14.01,2013-05-05 16:03:00,
2013-05-05 12:08:00,53.7,46.0,30.21,ENE,74,6.0,9.0,75,0.00,,OVC026,0.00,VWS V14.01,2013-05-05 16:08:00,
2013-05-05 12:13:00,53.5,45.1,30.20,ENE,68,9.0,10.0,73,0.00,,OVC026,0.00,VWS V14.01,2013-05-05 16:13:00,
2013-05-05 12:18:00,53.5,46.1,30.20,ENE,63,9.0,10.0,76,0.00,,OVC026,0.00,VWS V14.01,2013-05-05 16:18:00,
2013-05-05 12:23:00,53.6,46.2,30.20,NNE,33,7.0,8.0,76,0.00,,OVC026,0.00,VWS V14.01,2013-05-05 16:23:00,
2013-05-05 12:28:00,53.6,45.9,30.19,NE,46,9.0,11.0,75,0.00,,OVC026,0.00,VWS V14.01,2013-05-05 16:28:00,
2013-05-05 12:33:00,53.9,47.5,30.19,NE,48,12.0,12.0,79,0.00,,OVC026,0.00,VWS V14.01,2013-05-05 16:33:00,
2013-05-05 12:38:00,53.9,46.2,30.19,NE,44,7.0,12.0,75,0.00,,OVC026,0.00,VWS V14.01,2013-05-05 16:38:00,
2013-05-05 12:43:00,54.0,46.3,30.19,ENE,57,10.0,10.0,75,0.00,,OVC028,0.00,VWS V14.01,2013-05-05 16:43:00,
2013-05-05 12:48:00,54.2,47.2,30.19,NE,50,10.0,13.0,77,0.00,,OVC028,0.00,VWS V14.01,2013-05-05 16:48:00,
2013-05-05 12:53:00,54.4,46.7,30.18,NE,44,12.0,13.0,75,0.00,,OVC028,0.00,VWS V14.01,2013-05-05 16:53:00,
2013-05-05 12:58:00,54.4,47.0,30.18,NE,45,7.0,11.0,76,0.00,,OVC028,0.00,VWS V14.01,2013-05-05 16:58:00,
2013-05-05 13:03:00,54.7,46.9,30.18,NE,41,11.0,11.0,75,0.00,,OVC028,0.00,VWS V14.01,2013-05-05 17:03:00,
2013-05-05 13:08:00,55.1,47.7,30.18,ENE,60,7.0,13.0,76,0.00,,OVC028,0.00,VWS V14.01,2013-05-05 17:08:00,
2013-05-05 13:13:00,55.0,46.2,30.18,NE,49,11.0,12.0,72,0.00,,OVC028,0.00,VWS V14.01,2013-05-05 17:13:00,
2013-05-05 13:18:00,55.1,47.0,30.18,NNE,30,8.0,11.0,74,0.00,,OVC028,0.00,VWS V14.01,2013-05-05 17:18:00,
2013-05-05 13:23:00,55.2,46.7,30.18,ENE,63,10.0,11.0,73,0.00,,OVC028,0.00,VWS V14.01,2013-05-05 17:23:00,
2013-05-05 13:28:00,55.4,47.6,30.18,ENE,57,7.0,10.0,75,0.00,,OVC028,0.00,VWS V14.01,2013-05-05 17:28:00,
2013-05-05 13:33:00,55.6,47.1,30.18,NE,53,10.0,13.0,73,0.00,,OVC028,0.00,VWS V14.01,2013-05-05 17:33:00,
2013-05-05 13:38:00,55.7,47.5,30.18,ENE,61,10.0,12.0,74,0.00,,OVC028,0.00,VWS V14.01,2013-05-05 17:38:00,
2013-05-05 13:43:00,55.7,46.8,30.18,NE,54,8.0,12.0,72,0.00,,BKN032,0.00,VWS V14.01,2013-05-05 17:43:00,
2013-05-05 13:48:00,55.9,47.7,30.18,ENE,62,7.0,8.0,74,0.00,,BKN032,0.00,VWS V14.01,2013-05-05 17:48:00,
2013-05-05 13:53:00,56.0,47.1,30.18,ENE,62,6.0,9.0,72,0.00,,BKN032,0.00,VWS V14.01,2013-05-05 17:53:00,
2013-05-05 13:58:00,56.2,47.7,30.18,NE,55,8.0,9.0,73,0.00,,BKN032,0.00,VWS V14.01,2013-05-05 17:58:00,
2013-05-05 14:03:00,56.5,48.3,30.18,NE,51,9.0,12.0,74,0.00,,BKN032,0.00,VWS V14.01,2013-05-05 18:03:00,
2013-05-05 14:08:00,56.7,48.2,30.18,ENE,57,6.0,10.0,73,0.00,,BKN032,0.00,VWS V14.01,2013-05-05 18:08:00,
2013-05-05 14:13:00,56.9,48.3,30.17,ENE,63,6.0,13.0,73,0.00,,BKN032,0.00,VWS V14.01,2013-05-05 18:13:00,
2013-05-05 14:18:00,56.9,48.0,30.18,ENE,68,5.0,6.0,72,0.00,,BKN032,0.00,VWS V14.01,2013-05-05 18:18:00,
2013-05-05 14:23:00,57.3,48.0,30.17,NE,56,7.0,10.0,71,0.00,,BKN032,0.00,VWS V14.01,2013-05-05 18:23:00,
2013-05-05 14:28:00,57.3,48.4,30.17,NE,48,6.0,9.0,72,0.00,,BKN032,0.00,VWS V14.01,2013-05-05 18:28:00,
2013-05-05 14:33:00,57.5,48.6,30.17,ENE,66,3.0,5.0,72,0.00,,BKN032,0.00,VWS V14.01,2013-05-05 18:33:00,
2013-05-05 14:38:00,57.9,48.9,30.17,ENE,72,6.0,6.0,72,0.00,,BKN032,0.00,VWS V14.01,2013-05-05 18:38:00,
2013-05-05 14:43:00,57.9,48.9,30.17,ENE,58,6.0,9.0,72,0.00,,BKN034,0.00,VWS V14.01,2013-05-05 18:43:00,
2013-05-05 14:48:00,58.0,48.7,30.17,NNE,19,2.0,5.0,71,0.00,,BKN034,0.00,VWS V14.01,2013-05-05 18:48:00,
2013-05-05 14:53:00,58.4,49.4,30.17,ENE,71,8.0,9.0,72,0.00,,BKN034,0.00,VWS V14.01,2013-05-05 18:53:00,
2013-05-05 14:58:00,58.5,49.9,30.16,NE,44,4.0,8.0,73,0.00,,BKN034,0.00,VWS V14.01,2013-05-05 18:58:00,
2013-05-05 15:03:00,58.5,48.8,30.16,NE,42,0.0,5.0,70,0.00,,BKN034,0.00,VWS V14.01,2013-05-05 19:03:00,
2013-05-05 15:08:00,58.7,48.6,30.16,ENE,73,5.0,6.0,69,0.00,,BKN034,0.00,VWS V14.01,2013-05-05 19:08:00,
2013-05-05 15:13:00,59.0,50.4,30.16,NE,47,5.0,5.0,73,0.00,,BKN034,0.00,VWS V14.01,2013-05-05 19:13:00,
2013-05-05 15:18:00,59.1,49.3,30.16,NE,52,0.0,8.0,70,0.00,,BKN034,0.00,VWS V14.01,2013-05-05 19:18:00,
2013-05-05 15:23:00,59.2,50.2,30.16,NE,53,5.0,7.0,72,0.00,,BKN034,0.00,VWS V14.01,2013-05-05 19:23:00,
2013-05-05 15:28:00,59.4,49.6,30.16,ENE,71,3.0,5.0,70,0.00,,BKN034,0.00,VWS V14.01,2013-05-05 19:28:00,
2013-05-05 15:33:00,59.6,50.2,30.15,ENE,73,0.0,0.0,71,0.00,,BKN034,0.00,VWS V14.01,2013-05-05 19:33:00,
2013-05-05 15:38:00,59.9,50.9,30.15,East,95,5.0,7.0,72,0.00,,BKN034,0.00,VWS V14.01,2013-05-05 19:38:00,
2013-05-05 15:43:00,60.0,50.6,30.15,East,99,7.0,7.0,71,0.00,,BKN034,0.00,VWS V14.01,2013-05-05 19:43:00,
2013-05-05 15:48:00,60.1,50.7,30.15,ESE,109,7.0,9.0,71,0.00,,BKN034,0.00,VWS V14.01,2013-05-05 19:48:00,
2013-05-05 15:53:00,60.2,50.8,30.15,East,96,6.0,6.0,71,0.00,,BKN034,0.00,VWS V14.01,2013-05-05 19:53:00,
2013-05-05 15:58:00,60.2,50.8,30.15,East,100,9.0,10.0,71,0.00,,BKN034,0.00,VWS V14.01,2013-05-05 19:58:00,
2013-05-05 16:03:00,60.4,50.6,30.15,ESE,103,5.0,9.0,70,0.00,,BKN034,0.00,VWS V14.01,2013-05-05 20:03:00,
2013-05-05 16:08:00,60.6,50.8,30.15,East,95,6.0,10.0,70,0.00,,BKN034,0.00,VWS V14.01,2013-05-05 20:08:00,
2013-05-05 16:13:00,60.7,50.5,30.15,East,86,7.0,9.0,69,0.00,,BKN034,0.00,VWS V14.01,2013-05-05 20:13:00,
2013-05-05 16:18:00,60.6,51.2,30.15,East,96,7.0,9.0,71,0.00,,BKN034,0.00,VWS V14.01,2013-05-05 20:18:00,
2013-05-05 16:23:00,60.6,50.8,30.14,East,101,8.0,11.0,70,0.00,,BKN034,0.00,VWS V14.01,2013-05-05 20:23:00,
2013-05-05 16:28:00,60.4,50.6,30.14,East,92,12.0,13.0,70,0.00,,BKN034,0.00,VWS V14.01,2013-05-05 20:28:00,
2013-05-05 16:33:00,60.3,50.5,30.14,East,87,6.0,9.0,70,0.00,,BKN034,0.00,VWS V14.01,2013-05-05 20:33:00,
2013-05-05 16:38:00,60.0,50.2,30.14,East,85,10.0,12.0,70,0.00,,BKN034,0.00,VWS V14.01,2013-05-05 20:38:00,
2013-05-05 16:43:00,60.1,51.1,30.14,East,79,10.0,10.0,72,0.00,,SCT034,0.00,VWS V14.01,2013-05-05 20:43:00,
2013-05-05 16:48:00,60.2,51.5,30.14,East,87,9.0,11.0,73,0.00,,SCT034,0.00,VWS V14.01,2013-05-05 20:48:00,
2013-05-05 16:53:00,60.1,51.8,30.14,East,84,11.0,12.0,74,0.00,,SCT034,0.00,VWS V14.01,2013-05-05 20:53:00,
2013-05-05 16:58:00,60.0,50.6,30.14,East,96,11.0,12.0,71,0.00,,SCT034,0.00,VWS V14.01,2013-05-05 20:58:00,
2013-05-05 17:03:00,60.0,50.6,30.13,East,82,9.0,12.0,71,0.00,,SCT034,0.00,VWS V14.01,2013-05-05 21:03:00,
2013-05-05 17:08:00,59.9,51.2,30.13,East,92,12.0,17.0,73,0.00,,SCT034,0.00,VWS V14.01,2013-05-05 21:08:00,
2013-05-05 17:13:00,59.9,50.9,30.13,East,81,11.0,14.0,72,0.00,,SCT034,0.00,VWS V14.01,2013-05-05 21:13:00,
2013-05-05 17:18:00,59.8,50.4,30.13,East,86,11.0,12.0,71,0.00,,SCT034,0.00,VWS V14.01,2013-05-05 21:18:00,
2013-05-05 17:23:00,59.9,50.9,30.13,East,84,8.0,13.0,72,0.00,,SCT034,0.00,VWS V14.01,2013-05-05 21:23:00,
2013-05-05 17:28:00,59.9,51.2,30.13,East,87,13.0,14.0,73,0.00,,SCT034,0.00,VWS V14.01,2013-05-05 21:28:00,
2013-05-05 17:33:00,60.1,51.4,30.13,East,100,13.0,15.0,73,0.00,,SCT034,0.00,VWS V14.01,2013-05-05 21:33:00,
2013-05-05 17:38:00,60.1,51.4,30.13,East,96,12.0,13.0,73,0.00,,SCT034,0.00,VWS V14.01,2013-05-05 21:38:00,
2013-05-05 17:43:00,60.1,52.2,30.13,ESE,102,14.0,14.0,75,0.00,,BKN034,0.00,VWS V14.01,2013-05-05 21:43:00,
2013-05-05 17:48:00,60.1,51.1,30.14,ESE,106,13.0,14.0,72,0.00,,BKN034,0.00,VWS V14.01,2013-05-05 21:48:00,
2013-05-05 17:53:00,59.9,51.2,30.13,ESE,102,11.0,12.0,73,0.00,,BKN034,0.00,VWS V14.01,2013-05-05 21:53:00,
2013-05-05 17:58:00,59.7,51.0,30.13,East,99,11.0,13.0,73,0.00,,BKN034,0.00,VWS V14.01,2013-05-05 21:58:00,
2013-05-05 18:03:00,59.9,50.9,30.14,East,101,9.0,12.0,72,0.00,,BKN034,0.00,VWS V14.01,2013-05-05 22:03:00,
2013-05-05 18:08:00,59.9,51.2,30.14,East,88,10.0,10.0,73,0.00,,BKN034,0.00,VWS V14.01,2013-05-05 22:08:00,
2013-05-05 18:13:00,60.0,51.0,30.14,ESE,122,12.0,15.0,72,0.00,,BKN034,0.00,VWS V14.01,2013-05-05 22:13:00,
2013-05-05 18:18:00,59.9,51.2,30.14,ESE,105,11.0,13.0,73,0.00,,BKN034,0.00,VWS V14.01,2013-05-05 22:18:00,
2013-05-05 18:23:00,59.5,50.8,30.14,East,98,10.0,13.0,73,0.00,,BKN034,0.00,VWS V14.01,2013-05-05 22:23:00,
2013-05-05 18:28:00,59.3,52.1,30.14,ESE,106,14.0,15.0,77,0.00,,BKN034,0.00,VWS V14.01,2013-05-05 22:28:00,
2013-05-05 18:33:00,59.1,51.2,30.14,East,100,12.0,15.0,75,0.00,,BKN034,0.00,VWS V14.01,2013-05-05 22:33:00,
2013-05-05 18:38:00,58.8,50.9,30.14,ESE,109,14.0,15.0,75,0.00,,BKN034,0.00,VWS V14.01,2013-05-05 22:38:00,
2013-05-05 18:43:00,58.5,50.6,30.14,ESE,117,11.0,14.0,75,0.00,,SCT032,0.00,VWS V14.01,2013-05-05 22:43:00,
2013-05-05 18:48:00,58.2,50.3,30.14,ESE,120,10.0,13.0,75,0.00,,SCT032,0.00,VWS V14.01,2013-05-05 22:48:00,
2013-05-05 18:53:00,58.1,50.2,30.14,East,99,7.0,12.0,75,0.00,,SCT032,0.00,VWS V14.01,2013-05-05 22:53:00,
2013-05-05 18:58:00,58.2,51.4,30.14,ESE,105,12.0,13.0,78,0.00,,SCT032,0.00,VWS V14.01,2013-05-05 22:58:00,
2013-05-05 19:03:00,58.4,51.2,30.15,East,92,13.0,14.0,77,0.00,,SCT032,0.00,VWS V14.01,2013-05-05 23:03:00,
2013-05-05 19:08:00,58.5,51.0,30.15,East,101,12.0,15.0,76,0.00,,SCT032,0.00,VWS V14.01,2013-05-05 23:08:00,
2013-05-05 19:13:00,58.3,50.8,30.15,East,96,10.0,13.0,76,0.00,,SCT032,0.00,VWS V14.01,2013-05-05 23:13:00,
2013-05-05 19:18:00,58.2,51.0,30.15,ESE,106,10.0,13.0,77,0.00,,SCT032,0.00,VWS V14.01,2013-05-05 23:18:00,
2013-05-05 19:23:00,58.2,50.7,30.15,ESE,103,12.0,13.0,76,0.00,,SCT032,0.00,VWS V14.01,2013-05-05 23:23:00,
2013-05-05 19:28:00,58.2,51.7,30.15,East,98,12.0,14.0,79,0.00,,SCT032,0.00,VWS V14.01,2013-05-05 23:28:00,
2013-05-05 19:33:00,58.1,50.9,30.15,East,93,11.0,14.0,77,0.00,,SCT032,0.00,VWS V14.01,2013-05-05 23:33:00,
2013-05-05 19:38:00,58.0,51.2,30.15,East,87,11.0,13.0,78,0.00,,SCT032,0.00,VWS V14.01,2013-05-05 23:38:00,
2013-05-05 19:43:00,57.9,50.7,30.15,East,100,12.0,13.0,77,0.00,,FEW030,0.00,VWS V14.01,2013-05-05 23:43:00,
2013-05-05 19:48:00,57.7,51.2,30.15,East,96,14.0,15.0,79,0.00,,FEW030,0.00,VWS V14.01,2013-05-05 23:48:00,
2013-05-05 19:53:00,57.5,50.7,30.15,East,98,13.0,15.0,78,0.00,,FEW030,0.00,VWS V14.01,2013-05-05 23:53:00,
2013-05-05 19:58:00,57.5,51.0,30.15,ESE,109,15.0,15.0,79,0.00,,FEW030,0.00,VWS V14.01,2013-05-05 23:58:00,
2013-05-05 20:03:00,57.1,50.7,30.15,East,93,12.0,15.0,79,0.00,,FEW030,0.00,VWS V14.01,2013-05-06 00:03:00,
2013-05-05 20:08:00,57.1,51.0,30.15,ESE,111,11.0,12.0,80,0.00,,FEW030,0.00,VWS V14.01,2013-05-06 00:08:00,
2013-05-05 20:13:00,56.8,50.7,30.15,ESE,111,14.0,16.0,80,0.00,,SCT250,0.00,VWS V14.01,2013-05-06 00:13:00,
2013-05-05 20:18:00,56.6,50.8,30.15,ESE,103,14.0,14.0,81,0.00,,SCT250,0.00,VWS V14.01,2013-05-06 00:18:00,
2013-05-05 20:23:00,56.5,51.1,30.15,East,101,13.0,16.0,82,0.00,,SCT250,0.00,VWS V14.01,2013-05-06 00:23:00,
2013-05-05 20:28:00,56.4,50.3,30.15,East,90,13.0,16.0,80,0.00,,SCT250,0.00,VWS V14.01,2013-05-06 00:28:00,
2013-05-05 20:33:00,56.5,50.8,30.15,East,98,13.0,15.0,81,0.00,,SCT250,0.00,VWS V14.01,2013-05-06 00:33:00,
2013-05-05 20:38:00,56.2,50.5,30.15,ESE,104,15.0,15.0,81,0.00,,SCT250,0.00,VWS V14.01,2013-05-06 00:38:00,
2013-05-05 20:43:00,56.1,50.7,30.15,East,100,11.0,15.0,82,0.00,,SCT250,0.00,VWS V14.01,2013-05-06 00:43:00,
2013-05-05 20:48:00,55.9,50.5,30.15,East,98,14.0,15.0,82,0.00,,SCT250,0.00,VWS V14.01,2013-05-06 00:48:00,
2013-05-05 20:53:00,55.9,50.5,30.15,East,92,14.0,15.0,82,0.00,,SCT250,0.00,VWS V14.01,2013-05-06 00:53:00,
2013-05-05 20:58:00,55.8,50.7,30.16,East,100,15.0,16.0,83,0.00,,SCT250,0.00,VWS V14.01,2013-05-06 00:58:00,
2013-05-05 21:03:00,55.6,50.2,30.16,ESE,105,15.0,16.0,82,0.00,,SCT250,0.00,VWS V14.01,2013-05-06 01:03:00,
2013-05-05 21:08:00,55.3,49.9,30.16,East,94,16.0,16.0,82,0.00,,SCT250,0.00,VWS V14.01,2013-05-06 01:08:00,
2013-05-05 21:13:00,55.3,49.9,30.16,ESE,107,12.0,15.0,82,0.00,,SCT250,0.00,VWS V14.01,2013-05-06 01:13:00,
2013-05-05 21:18:00,55.3,49.9,30.16,East,82,12.0,15.0,82,0.00,,SCT250,0.00,VWS V14.01,2013-05-06 01:18:00,
2013-05-05 21:24:00,55.1,49.7,30.15,East,96,15.0,17.0,82,0.00,,SCT250,0.00,VWS V14.01,2013-05-06 01:24:00,
2013-05-05 21:29:00,55.0,49.9,30.15,East,88,13.0,17.0,83,0.00,,SCT250,0.00,VWS V14.01,2013-05-06 01:29:00,
2013-05-05 21:34:00,55.1,50.4,30.15,East,86,15.0,15.0,84,0.00,,SCT250,0.00,VWS V14.01,2013-05-06 01:34:00,
2013-05-05 21:39:00,54.9,50.2,30.15,ENE,78,14.0,16.0,84,0.00,,SCT250,0.00,VWS V14.01,2013-05-06 01:39:00,
2013-05-05 21:43:00,54.6,49.9,30.15,East,80,13.0,16.0,84,0.00,,SKC,0.00,VWS V14.01,2013-05-06 01:43:00,
2013-05-05 21:49:00,54.4,50.0,30.15,ENE,69,14.0,16.0,85,0.00,,SKC,0.00,VWS V14.01,2013-05-06 01:49:00,
2013-05-05 21:54:00,54.3,50.2,30.15,ENE,67,12.0,15.0,86,0.00,,SKC,0.00,VWS V14.01,2013-05-06 01:54:00,
2013-05-05 21:58:00,54.3,49.9,30.16,ENE,75,15.0,16.0,85,0.00,,SKC,0.00,VWS V14.01,2013-05-06 01:58:00,
2013-05-05 22:03:00,54.2,50.4,30.15,East,88,13.0,15.0,87,0.00,,SKC,0.00,VWS V14.01,2013-05-06 02:03:00,
2013-05-05 22:08:00,53.8,49.7,30.15,East,88,13.0,15.0,86,0.00,,SKC,0.00,VWS V14.01,2013-05-06 02:08:00,
2013-05-05 22:13:00,53.5,49.4,30.15,East,81,14.0,15.0,86,0.00,,SKC,0.00,VWS V14.01,2013-05-06 02:13:00,
2013-05-05 22:18:00,53.3,49.2,30.15,East,79,14.0,17.0,86,0.00,,SKC,0.00,VWS V14.01,2013-05-06 02:18:00,
2013-05-05 22:23:00,53.2,49.7,30.15,ENE,78,11.0,15.0,88,0.00,,SKC,0.00,VWS V14.01,2013-05-06 02:23:00,
2013-05-05 22:28:00,53.1,49.3,30.15,East,86,15.0,16.0,87,0.00,,SKC,0.00,VWS V14.01,2013-05-06 02:28:00,
2013-05-05 22:33:00,52.9,49.1,30.16,ENE,71,12.0,14.0,87,0.00,,SKC,0.00,VWS V14.01,2013-05-06 02:33:00,
2013-05-05 22:39:00,52.7,49.0,30.15,East,79,12.0,14.0,87,0.00,,SKC,0.00,VWS V14.01,2013-05-06 02:39:00,
2013-05-05 22:44:00,52.7,49.0,30.15,East,82,16.0,16.0,87,0.00,,SKC,0.00,VWS V14.01,2013-05-06 02:44:00,
2013-05-05 22:49:00,52.8,49.3,30.15,East,82,13.0,15.0,88,0.00,,SKC,0.00,VWS V14.01,2013-05-06 02:49:00,
2013-05-05 22:53:00,52.6,48.8,30.15,ENE,76,12.0,14.0,87,0.00,,SKC,0.00,VWS V14.01,2013-05-06 02:53:00,
2013-05-05 22:58:00,52.4,49.0,30.15,ENE,76,11.0,14.0,88,0.00,,SKC,0.00,VWS V14.01,2013-05-06 02:58:00,
2013-05-05 23:04:00,52.4,49.0,30.16,East,87,10.0,12.0,88,0.00,,SKC,0.00,VWS V14.01,2013-05-06 03:04:00,
2013-05-05 23:09:00,52.3,48.5,30.16,East,86,10.0,13.0,87,0.00,,SKC,0.00,VWS V14.01,2013-05-06 03:09:00,
2013-05-05 23:14:00,52.4,49.0,30.16,East,88,10.0,13.0,88,0.00,,SKC,0.00,VWS V14.01,2013-05-06 03:14:00,
2013-05-05 23:19:00,52.4,49.0,30.16,ESE,102,14.0,15.0,88,0.00,,SKC,0.00,VWS V14.01,2013-05-06 03:19:00,
2013-05-05 23:24:00,52.3,49.2,30.16,East,96,11.0,14.0,89,0.00,,SKC,0.00,VWS V14.01,2013-05-06 03:24:00,
2013-05-05 23:29:00,52.2,48.8,30.16,SE,125,11.0,15.0,88,0.00,,SKC,0.00,VWS V14.01,2013-05-06 03:29:00,
2013-05-05 23:34:00,51.9,48.8,30.16,ESE,105,14.0,17.0,89,0.00,,SKC,0.00,VWS V14.01,2013-05-06 03:34:00,
2013-05-05 23:39:00,51.7,48.6,30.16,ESE,107,13.0,16.0,89,0.00,,SKC,0.00,VWS V14.01,2013-05-06 03:39:00,
2013-05-05 23:44:00,51.7,48.9,30.16,ESE,102,15.0,17.0,90,0.00,,CLR,0.00,VWS V14.01,2013-05-06 03:44:00,
2013-05-05 23:49:00,51.5,48.4,30.15,East,98,15.0,18.0,89,0.00,,CLR,0.00,VWS V14.01,2013-05-06 03:49:00,
2013-05-05 23:54:00,51.5,48.7,30.15,East,101,12.0,16.0,90,0.00,,CLR,0.00,VWS V14.01,2013-05-06 03:54:00,
2013-05-05 23:59:00,51.5,48.7,30.15,East,96,16.0,16.0,90,0.00,,CLR,0.00,VWS V14.01,2013-05-06 03:59:00,